ADDS METAR Data INFO
IDs: Format: Raw Decoded Include TAF

Data at: 0213 UTC 17 Aug 2018

PAOT 170153Z 20012KT 10SM FEW090 BKN240 15/09 A2970 RMK AO2 SLP056 T01500094
PAOT 170053Z 20015KT 10SM OVC240 14/09 A2971 RMK AO2 SLP059 T01440089
PAOT 162353Z 19014KT 10SM CLR 14/08 A2972 RMK AO2 SLP063 T01440083 10144 20111 58012
PAOT 162253Z 19011KT 10SM CLR 13/08 A2973 RMK AO2 SLP069 T01330083
PAOT 162153Z 20010KT 10SM CLR 13/08 A2975 RMK AO2 SLP074 T01330078
PAOT 162053Z 22009KT 10SM CLR 12/07 A2975 RMK AO2 SLP075 T01220072 56008
PAOT 161953Z 24008KT 10SM CLR 12/07 A2976 RMK AO2 SLP077 T01170067
PAOT 161853Z 24012KT 10SM SCT095 11/06 A2977 RMK AO2 SLP081 T01110061
PAOT 161753Z 24012KT 8SM OVC100 11/06 A2978 RMK AO2 SLP084 T01110056 10117 20111 58002
PAOT 161653Z 25013KT 10SM OVC100 11/06 A2979 RMK AO2 SLP086 T01110061
PAOT 161553Z 25011KT 10SM BKN100 BKN120 11/07 A2979 RMK AO2 SLP089 T01110067
PAOT 161453Z 23016KT 10SM CLR 11/06 A2978 RMK AO2 SLP085 T01110061 56008
PAOT 161353Z AUTO 23017KT 10SM CLR 11/07 A2979 RMK AO2 SLP088 T01110067 TSNO $
PAOT 161253Z AUTO 23016KT 10SM CLR 11/07 A2980 RMK AO2 SLP090 T01110067 TSNO $
PAOT 161153Z AUTO 24020KT 10SM CLR 12/06 A2981 RMK AO2 SLP094 70001 T01170061 10122 20117 57011 TSNO $
PAOT 161053Z AUTO 24017KT 10SM CLR 12/06 A2982 RMK AO2 SLP097 T01170061 TSNO $
PAOT 160953Z AUTO 24015KT 10SM CLR 12/07 A2983 RMK AO2 SLP100 T01170067 TSNO $
PAOT 160853Z AUTO 24014KT 10SM CLR 12/07 A2984 RMK AO2 SLP104 T01170067 401220061 58005 TSNO $
PAOT 160753Z 25016KT 10SM BKN060 BKN160 12/07 A2985 RMK AO2 SLP107 T01170067 $
PAOT 160653Z 24013KT 10SM SCT070 BKN170 12/07 A2985 RMK AO2 SLP108 T01170067 $
PAOT 160553Z 24014KT 10SM SCT070 OVC220 12/07 A2985 RMK AO2 SLP109 T01170067 10122 20111 56007
PAOT 160453Z 24016KT 10SM SCT070 BKN110 OVC220 12/07 A2986 RMK AO2 SLP111 T01220072
PAOT 160353Z 25017KT 10SM SCT140 OVC220 12/07 A2987 RMK AO2 SLP114 T01170067
PAOT 160253Z 25017KT 10SM FEW060 SCT140 OVC220 11/07 A2988 RMK AO2 SLP117 T01110072 56006
PAOT 160153Z 25015KT 10SM FEW013 SCT055 BKN110 OVC150 11/08 A2988 RMK AO2 SLP117 T01110083
PAOT 160053Z 25015KT 10SM FEW013 SCT085 BKN110 OVC140 11/08 A2989 RMK AO2 SLP122 T01110078
PAOT 152353Z 26014KT 10SM FEW039 BKN100 11/07 A2989 RMK AO2 RAE06 SLP123 P0000 60001 T01110067 10111 20089 58004
PAOT 152253Z 26013KT 10SM -RA BKN080 OVC090 11/06 A2991 RMK AO2 RAE02B24 SLP127 P0000 T01060056
PAOT 152153Z 27013KT 10SM -RA OVC060 10/06 A2991 RMK AO2 SLP128 P0001 T01000056
PAOT 152053Z 29013KT 10SM -RA OVC060 10/05 A2991 RMK AO2 RAB26 SLP127 P0000 60000 T01000050 50001
PAOT 151953Z 27011KT 10SM BKN065 OVC080 10/05 A2991 RMK AO2 SLP127 T01000050 $
PAOT 151853Z 31009KT 10SM SCT100 09/05 A2990 RMK AO2 SLP126 T00940050 $
PAOT 151753Z 33006KT 10SM CLR 09/02 A2990 RMK AO2 SLP126 T00890022 10089 20061 53005
PAOT 151653Z 32004KT 10SM CLR 08/03 A2989 RMK AO2 SLP123 T00830033
PAOT 151553Z 35004KT 10SM CLR 08/02 A2989 RMK AO2 SLP122 T00780017
PAOT 151453Z 03004KT 10SM CLR 07/01 A2989 RMK AO2 SLP121 T00720011 58002